• Join FlightAware (Why Join?)
  • Login
  • US Flag 
10:34PM EST


 

Airport Tracker/Info


-or-


 

Live Flight TrackerFlight Track Log ✈ N2229F ✈ 01-Sep-2014 ✈ KALB - N07

Flight Track Log - Related Links

Times and Time Zones

All times are in EDT time to prevent confusion due to time zone crossing. See the N2229F flight status page for this flight to view local times or setup timezone preferences in your user account.

Time Position Orientation Groundspeed Altitude Reporting Facility
EDT Latitude Longitude Course Direction KTS MPH feet Rate Location/Type
06:36PM 42.7814 -73.3647 199° South 153 176 3,600  Level Boston Center
06:37PM 42.7372 -73.3850 199° South 157 181 4,000 420 Climbing Boston Center
06:38PM 42.6911 -73.4017 195° South 158 182 4,500 660 Climbing Boston Center
06:39PM 42.6594 -73.4050 184° South 147 169 5,300 960 Climbing Boston Center
06:39PM 42.6539 -73.4067 192° South 129 148 5,500 960 Climbing Boston Center
06:40PM 42.6275 -73.4125 189° South 120 138 6,300 960 Climbing Boston Center
06:40PM 42.6225 -73.4139 192° South 110 127 6,500 240 Climbing Boston Center
06:41PM 42.5917 -73.4297 201° Southwest 145 167 6,600  Climbing Boston Center
06:42PM 42.5531 -73.4528 204° Southwest 155 178 6,600  Level Boston Center
06:42PM 42.5414 -73.4594 203° Southwest 172 198 6,600  Level Boston Center
06:43PM 42.5106 -73.4775 203° Southwest 163 188 6,600  Level Boston Center
06:43PM 42.4978 -73.4858 206° Southwest 173 199 6,600  Level Boston Center
06:44PM 42.4625 -73.5042 201° Southwest 168 193 6,600 -120 Level Boston Center
06:44PM 42.4481 -73.5128 204° Southwest 172 198 6,500  Descending Boston Center
06:45PM 42.4186 -73.5283 201° Southwest 171 197 6,600 60 Climbing Boston Center
06:45PM 42.4031 -73.5356 199° South 172 198 6,600  Level Boston Center
06:46PM 42.3653 -73.5547 201° Southwest 170 196 6,600  Level Boston Center
06:47PM 42.3342 -73.5728 203° Southwest 171 197 6,600  Level Boston Center
06:48PM 42.2883 -73.5975 202° Southwest 171 197 6,600  Level Boston Center
06:49PM 42.2353 -73.6275 203° Southwest 171 197 6,600  Level Boston Center
06:50PM 42.1906 -73.6525 202° Southwest 171 197 6,600  Level Boston Center
06:51PM 42.1453 -73.6764 201° Southwest 172 198 6,600  Level Boston Center
06:52PM 42.0994 -73.7017 202° Southwest 172 198 6,600  Level Boston Center
06:53PM 42.0508 -73.7292 203° Southwest 174 200 6,600  Level Boston Center
06:54PM 42.0025 -73.7544 201° Southwest 175 201 6,600  Level Boston Center
06:55PM 41.9581 -73.7778 201° Southwest 174 200 6,600  Level Boston Center
06:56PM 41.9094 -73.8039 202° Southwest 174 200 6,600  Level Boston Center
06:57PM 41.8647 -73.8278 202° Southwest 174 200 6,600  Level Boston Center
06:58PM 41.8192 -73.8533 203° Southwest 175 201 6,600  Level Boston Center
06:59PM 41.7703 -73.8783 201° Southwest 175 201 6,600  Level Boston Center
07:00PM 41.7253 -73.9031 202° Southwest 175 201 6,600  Level Boston Center
07:01PM 41.6764 -73.9300 202° Southwest 175 201 6,600  Level Boston Center
07:02PM 41.6317 -73.9539 202° Southwest 175 201 6,600  Level Boston Center
07:03PM 41.5861 -73.9778 201° Southwest 175 201 6,600  Level Boston Center
07:04PM 41.5378 -74.0033 202° Southwest 175 201 6,600  Level Boston Center
07:05PM 41.4931 -74.0261 201° Southwest 174 200 6,600  Level Boston Center
07:06PM 41.4478 -74.0503 202° Southwest 174 200 6,600  Level Boston Center
07:08PM 41.3997 -74.0767 202° Southwest 174 200 6,600 -60 Level Boston Center
07:09PM 41.3558 -74.1011 203° Southwest 173 199 6,500 -360 Descending Boston Center
07:10PM 41.3122 -74.1333 209° Southwest 175 201 5,900 -600 Descending Boston Center
07:11PM 41.2650 -74.1694 210° Southwest 179 206 5,300 -600 Descending Boston Center
07:12PM 41.2186 -74.1906 199° South 179 206 4,700 -600 Descending Boston Center
07:13PM 41.1747 -74.2111 199° South 172 198 4,100 -660 Descending Boston Center
07:14PM 41.1275 -74.2325 199° South 169 194 3,400 -660 Descending Boston Center
07:14PM 41.1000 -74.2500 206° Southwest 164 189 3,100 -600 Descending New York TRACON
07:15PM 41.0500 -74.2667 194° South 162 186 2,500 -600 Descending New York TRACON
07:18PM 40.9698 -74.2818 201° Southwest  Level FlightAware Approximate
07:25PM 40.9333 -74.3000 201° Southwest  Level FlightAware Approximate
07:26PM 40.9795 -74.3000 North  Level FlightAware Approximate
07:27PM 40.9333 -74.3000 201° Southwest  Level FlightAware Approximate
07:28PM 40.9795 -74.3000 North  Level FlightAware Approximate
07:29PM 40.9333 -74.3000 201° Southwest  Level FlightAware Approximate